Time;durP1;ratioP1;P1;durP2;ratioP2;P2;SDS_P1;SDS_P2;PMS_P1;PMS_P2;Temp;Humidity;BMP_temperature;BMP_pressure;BME280_temperature;BME280_humidity;BME280_pressure;Samples;Min_cycle;Max_cycle;Signal;HPM_P1;HPM_P2
2023/08/23 00:00:05;;;;;;;9.03;5.23;;;22.90;98.00;;;;;;5054252;28;20881;-89
2023/08/23 00:02:34;;;;;;;7.57;4.97;;;22.80;98.00;;;;;;5054367;28;20579;-89
2023/08/23 00:05:01;;;;;;;9.00;5.57;;;22.80;98.00;;;;;;5054961;28;20458;-89
2023/08/23 00:07:28;;;;;;;8.20;5.10;;;22.80;98.00;;;;;;5054665;28;20453;-90
2023/08/23 00:09:55;;;;;;;8.60;4.73;;;22.90;98.00;;;;;;5055653;28;20485;-89
2023/08/23 00:12:22;;;;;;;11.20;4.57;;;22.80;98.00;;;;;;5057591;28;20454;-90
2023/08/23 00:14:49;;;;;;;12.53;5.20;;;22.80;98.00;;;;;;5061472;28;20826;-90
2023/08/23 00:17:16;;;;;;;8.43;4.80;;;22.70;98.00;;;;;;5071066;28;20438;-92
2023/08/23 00:19:46;;;;;;;7.93;4.97;;;22.70;98.00;;;;;;5078762;28;20461;-91
2023/08/23 00:22:13;;;;;;;7.67;4.83;;;22.70;98.00;;;;;;5074107;28;20474;-90
2023/08/23 00:24:40;;;;;;;8.70;5.07;;;22.80;98.00;;;;;;5054573;28;20523;-89
2023/08/23 00:27:07;;;;;;;12.10;5.00;;;22.80;98.00;;;;;;5053225;28;20446;-90
2023/08/23 00:29:34;;;;;;;8.20;5.10;;;22.90;98.00;;;;;;5053836;28;20481;-89
2023/08/23 00:32:01;;;;;;;7.90;5.20;;;22.70;98.00;;;;;;5054208;28;20458;-90
2023/08/23 00:34:28;;;;;;;8.93;5.17;;;22.70;98.00;;;;;;5053876;28;20545;-90
2023/08/23 00:36:57;;;;;;;10.50;5.40;;;22.70;98.00;;;;;;5053430;28;20519;-90
2023/08/23 00:39:25;;;;;;;8.57;4.83;;;22.70;98.00;;;;;;5054111;28;20466;-89
2023/08/23 00:41:52;;;;;;;11.90;5.00;;;22.80;98.00;;;;;;5053995;28;20450;-89
2023/08/23 00:44:20;;;;;;;8.90;4.80;;;22.80;98.00;;;;;;5055982;28;20461;-89
2023/08/23 00:46:47;;;;;;;7.63;4.90;;;22.50;98.00;;;;;;5056470;28;20485;-89
2023/08/23 00:49:14;;;;;;;10.27;5.30;;;22.40;98.00;;;;;;5058369;28;20541;-89
2023/08/23 00:51:43;;;;;;;8.17;5.23;;;22.30;98.00;;;;;;5055413;28;20465;-89
2023/08/23 00:54:11;;;;;;;8.70;5.13;;;22.10;98.00;;;;;;5054604;28;20492;-90
2023/08/23 00:56:39;;;;;;;8.57;5.20;;;22.00;98.00;;;;;;5054373;28;20453;-89
2023/08/23 00:59:08;;;;;;;10.07;4.87;;;22.10;98.00;;;;;;5053386;28;20478;-90
2023/08/23 01:01:35;;;;;;;8.70;5.17;;;22.20;98.00;;;;;;5053148;28;20454;-89
2023/08/23 01:04:03;;;;;;;9.63;5.40;;;22.20;98.00;;;;;;5053202;28;20485;-89
2023/08/23 01:06:36;;;;;;;7.50;5.17;;;22.10;98.00;;;;;;5053228;28;20454;-89
2023/08/23 01:09:10;;;;;;;8.90;5.50;;;22.10;98.00;;;;;;5052809;28;20477;-89
2023/08/23 01:11:55;;;;;;;6.70;4.40;;;22.20;98.00;;;;;;5052964;28;20465;-89
2023/08/23 01:14:29;;;;;;;7.30;4.70;;;22.10;98.00;;;;;;5053086;28;20445;-90
2023/08/23 01:16:58;;;;;;;8.70;5.10;;;22.10;98.00;;;;;;5052665;28;20465;-89
2023/08/23 01:19:43;;;;;;;8.40;5.00;;;22.10;98.00;;;;;;5053021;28;20482;-89
2023/08/23 01:22:12;;;;;;;8.20;4.83;;;22.10;98.00;;;;;;5053173;28;20482;-89
2023/08/23 01:24:42;;;;;;;7.53;5.00;;;22.00;98.00;;;;;;5053309;28;20454;-90
2023/08/23 01:27:09;;;;;;;8.23;5.30;;;21.90;98.00;;;;;;5052357;28;20485;-89
2023/08/23 01:29:36;;;;;;;9.93;5.50;;;21.80;98.00;;;;;;5052786;28;20482;-89
2023/08/23 01:32:15;;;;;;;7.27;4.40;;;21.80;98.00;;;;;;5052629;28;20458;-89
2023/08/23 01:34:48;;;;;;;8.13;4.83;;;21.80;98.00;;;;;;5053112;28;20458;-89
2023/08/23 01:37:16;;;;;;;8.57;5.03;;;22.00;98.00;;;;;;5052291;28;20478;-89
2023/08/23 01:39:45;;;;;;;9.60;5.50;;;22.10;98.00;;;;;;5052397;28;20466;-89
2023/08/23 01:42:12;;;;;;;6.67;4.80;;;22.20;98.00;;;;;;5052436;28;20476;-89
2023/08/23 01:44:43;;;;;;;8.00;5.40;;;22.10;98.00;;;;;;5052926;28;20519;-90
2023/08/23 01:47:10;;;;;;;8.90;5.43;;;22.10;98.00;;;;;;5051801;28;20548;-90
2023/08/23 01:49:37;;;;;;;9.07;5.30;;;22.00;98.00;;;;;;5053168;28;20474;-89
2023/08/23 01:52:05;;;;;;;9.63;5.30;;;21.80;98.00;;;;;;5052261;28;20458;-89
2023/08/23 01:54:32;;;;;;;8.40;5.23;;;21.70;98.00;;;;;;5052371;28;20454;-89
2023/08/23 01:57:01;;;;;;;9.03;5.73;;;21.60;98.00;;;;;;5051623;28;20450;-89
2023/08/23 01:59:28;;;;;;;10.50;5.33;;;21.50;98.00;;;;;;5051717;28;20478;-89
2023/08/23 02:01:55;;;;;;;9.03;4.90;;;21.50;98.00;;;;;;5052202;28;20455;-89
2023/08/23 02:04:22;;;;;;;7.93;4.77;;;21.60;98.00;;;;;;5052065;28;20848;-89
2023/08/23 02:06:49;;;;;;;7.90;5.30;;;21.50;98.00;;;;;;5051827;28;20457;-90
2023/08/23 02:09:16;;;;;;;10.30;5.50;;;21.60;98.00;;;;;;5051919;28;20481;-89
2023/08/23 02:11:44;;;;;;;7.90;4.87;;;21.40;98.00;;;;;;5052052;28;20896;-89
2023/08/23 02:14:13;;;;;;;9.70;5.10;;;21.40;98.00;;;;;;5051735;28;20488;-89
2023/08/23 02:16:40;;;;;;;7.50;4.93;;;21.70;98.00;;;;;;5052376;28;20885;-89
2023/08/23 02:19:07;;;;;;;7.53;4.73;;;21.80;98.00;;;;;;5051263;28;20842;-89
2023/08/23 02:21:35;;;;;;;8.90;5.50;;;21.80;98.00;;;;;;5051785;28;20804;-89
2023/08/23 02:24:02;;;;;;;7.80;5.07;;;21.70;98.00;;;;;;5051727;28;20486;-90
2023/08/23 02:26:29;;;;;;;8.07;5.23;;;21.60;98.00;;;;;;5051927;28;20469;-89
2023/08/23 02:28:56;;;;;;;9.73;5.90;;;21.40;98.00;;;;;;5050857;28;20466;-89
2023/08/23 02:31:25;;;;;;;7.53;5.13;;;21.30;98.00;;;;;;5051652;28;20867;-89
2023/08/23 02:33:52;;;;;;;8.97;5.30;;;21.10;98.00;;;;;;5051474;28;20461;-89
2023/08/23 02:36:19;;;;;;;10.77;5.50;;;21.10;98.00;;;;;;5051615;28;20466;-89
2023/08/23 02:38:46;;;;;;;7.83;4.47;;;21.10;98.00;;;;;;5050929;28;20520;-89
2023/08/23 02:41:13;;;;;;;7.77;5.07;;;21.10;98.00;;;;;;5051018;28;20512;-89
2023/08/23 02:43:40;;;;;;;8.87;5.17;;;21.20;98.00;;;;;;5051380;28;20849;-90
2023/08/23 02:46:08;;;;;;;10.47;5.30;;;21.20;98.00;;;;;;5051423;28;20825;-89
2023/08/23 02:48:36;;;;;;;10.43;5.13;;;21.10;98.00;;;;;;5050780;28;20454;-89
2023/08/23 02:51:03;;;;;;;8.60;5.40;;;21.00;98.00;;;;;;5051148;28;20466;-89
2023/08/23 02:53:30;;;;;;;10.40;5.73;;;21.00;98.00;;;;;;5051181;28;20461;-89
2023/08/23 02:55:57;;;;;;;9.20;5.53;;;21.10;98.00;;;;;;5051121;28;20815;-89
2023/08/23 02:58:24;;;;;;;10.53;6.43;;;21.10;98.00;;;;;;5050344;28;20970;-90
2023/08/23 03:00:52;;;;;;;10.80;6.00;;;21.20;98.00;;;;;;5051314;28;20465;-89
2023/08/23 03:03:19;;;;;;;8.80;5.53;;;21.10;98.00;;;;;;5051149;28;20482;-90
2023/08/23 03:05:55;;;;;;;10.50;5.67;;;21.10;98.00;;;;;;5051397;28;20540;-90
2023/08/23 03:08:22;;;;;;;8.67;5.30;;;21.10;98.00;;;;;;5050296;28;20531;-90
2023/08/23 03:10:50;;;;;;;8.60;5.20;;;21.20;98.00;;;;;;5051458;28;20450;-89
2023/08/23 03:13:17;;;;;;;11.10;6.17;;;21.30;98.00;;;;;;5055072;28;20825;-90
2023/08/23 03:15:44;;;;;;;8.70;5.23;;;21.20;98.00;;;;;;5055186;28;20453;-89
2023/08/23 03:18:11;;;;;;;8.40;4.97;;;21.20;98.00;;;;;;5054368;28;20521;-90
2023/08/23 03:20:38;;;;;;;16.10;5.30;;;21.20;98.00;;;;;;5055415;28;20489;-90
2023/08/23 03:23:07;;;;;;;9.70;5.50;;;21.10;98.00;;;;;;5055118;28;20516;-91
2023/08/23 03:25:34;;;;;;;7.90;5.10;;;21.10;98.00;;;;;;5055359;28;20462;-89
2023/08/23 03:28:02;;;;;;;9.10;5.50;;;21.20;98.00;;;;;;5054506;28;20485;-89
2023/08/23 03:30:29;;;;;;;8.30;5.43;;;21.20;98.00;;;;;;5054893;28;20665;-89
2023/08/23 03:32:56;;;;;;;7.70;5.03;;;21.20;98.00;;;;;;5055704;28;20453;-90
2023/08/23 03:35:23;;;;;;;11.70;5.40;;;21.10;98.00;;;;;;5058202;28;20473;-89
2023/08/23 03:37:50;;;;;;;9.07;5.43;;;21.00;98.00;;;;;;5059741;28;20943;-89
2023/08/23 03:40:19;;;;;;;7.90;5.03;;;21.00;98.00;;;;;;5065635;28;20474;-91
2023/08/23 03:42:46;;;;;;;7.73;4.90;;;21.20;98.00;;;;;;5068559;28;20454;-91
2023/08/23 03:45:13;;;;;;;10.50;5.60;;;21.20;98.00;;;;;;5079423;28;20450;-92
2023/08/23 03:47:40;;;;;;;10.23;5.73;;;21.00;98.00;;;;;;5079138;28;20465;-92
2023/08/23 03:50:07;;;;;;;8.47;5.17;;;20.90;98.00;;;;;;5079189;28;20533;-91
2023/08/23 03:52:35;;;;;;;9.33;5.90;;;20.70;98.00;;;;;;5056079;28;20943;-90
2023/08/23 03:55:02;;;;;;;13.40;5.50;;;20.80;98.00;;;;;;5054350;28;20454;-89
2023/08/23 03:57:31;;;;;;;8.80;5.50;;;20.70;98.00;;;;;;5054002;28;20461;-90
2023/08/23 03:59:58;;;;;;;8.87;5.60;;;20.60;98.00;;;;;;5054588;28;20544;-88
2023/08/23 04:02:25;;;;;;;9.40;5.80;;;20.50;98.00;;;;;;5054690;28;20821;-90
2023/08/23 04:04:52;;;;;;;10.17;5.90;;;20.50;98.00;;;;;;5054414;28;20852;-89
2023/08/23 04:07:19;;;;;;;9.90;5.83;;;20.50;98.00;;;;;;5054214;28;20876;-90
2023/08/23 04:09:46;;;;;;;9.70;5.83;;;20.50;98.00;;;;;;5054864;28;20473;-90
2023/08/23 04:12:13;;;;;;;9.90;5.80;;;20.50;98.00;;;;;;5055003;28;20580;-89
2023/08/23 04:14:42;;;;;;;11.53;5.93;;;20.50;98.00;;;;;;5054927;28;20454;-89
2023/08/23 04:17:09;;;;;;;15.53;5.93;;;20.60;98.00;;;;;;5054422;28;20458;-91
2023/08/23 04:19:37;;;;;;;11.17;5.57;;;20.60;98.00;;;;;;5054876;28;20478;-90
2023/08/23 04:22:04;;;;;;;9.50;5.53;;;20.70;98.00;;;;;;5054285;28;20457;-90
2023/08/23 04:24:31;;;;;;;10.67;6.13;;;20.70;98.00;;;;;;5054720;28;20543;-90
2023/08/23 04:26:58;;;;;;;9.10;6.00;;;20.70;98.00;;;;;;5054239;28;20458;-90
2023/08/23 04:29:26;;;;;;;10.60;5.73;;;20.60;98.00;;;;;;5054700;28;20975;-90
2023/08/23 04:31:54;;;;;;;10.23;6.30;;;20.40;98.00;;;;;;5054727;28;20983;-90
2023/08/23 04:34:21;;;;;;;8.83;5.80;;;20.40;98.00;;;;;;5054705;28;20464;-89
2023/08/23 04:36:48;;;;;;;10.80;5.80;;;20.40;98.00;;;;;;5055779;28;20473;-89
2023/08/23 04:39:16;;;;;;;8.37;5.20;;;20.50;98.00;;;;;;5053881;28;20568;-89
2023/08/23 04:41:43;;;;;;;9.87;6.07;;;20.60;98.00;;;;;;5053560;28;20450;-89
2023/08/23 04:44:10;;;;;;;9.67;5.70;;;20.60;98.00;;;;;;5053523;28;20490;-89
2023/08/23 04:46:37;;;;;;;8.40;5.33;;;20.50;98.00;;;;;;5053749;28;20805;-89
2023/08/23 04:49:05;;;;;;;15.40;6.43;;;20.40;98.00;;;;;;5053002;28;20482;-89
2023/08/23 04:51:32;;;;;;;11.57;6.10;;;20.40;98.00;;;;;;5053504;28;20457;-89
2023/08/23 04:53:59;;;;;;;8.23;5.40;;;20.30;98.00;;;;;;5053593;28;20819;-89
2023/08/23 04:56:27;;;;;;;9.97;6.00;;;20.40;98.00;;;;;;5052974;28;20967;-89
2023/08/23 04:58:54;;;;;;;9.40;5.73;;;20.30;98.00;;;;;;5052835;28;20485;-89
2023/08/23 05:01:21;;;;;;;8.87;5.30;;;20.30;98.00;;;;;;5053179;28;20483;-89
2023/08/23 05:03:48;;;;;;;10.30;5.73;;;20.40;98.00;;;;;;5052976;28;20490;-89
2023/08/23 05:06:16;;;;;;;9.97;5.60;;;20.40;98.00;;;;;;5053035;28;20840;-89
2023/08/23 05:08:43;;;;;;;9.33;5.60;;;20.50;98.00;;;;;;5052668;28;20486;-90
2023/08/23 05:11:10;;;;;;;9.83;5.80;;;20.60;98.00;;;;;;5053011;28;20545;-89
2023/08/23 05:13:38;;;;;;;12.63;6.60;;;20.70;98.00;;;;;;5053498;28;20454;-90
2023/08/23 05:16:05;;;;;;;10.60;6.30;;;21.00;98.00;;;;;;5053216;28;20545;-88
2023/08/23 05:18:32;;;;;;;9.40;5.90;;;20.90;98.00;;;;;;5052654;28;20461;-89
2023/08/23 05:21:00;;;;;;;10.70;6.20;;;20.90;98.00;;;;;;5052905;28;20458;-89
2023/08/23 05:23:28;;;;;;;10.20;5.50;;;20.80;98.00;;;;;;5052628;28;20477;-89
2023/08/23 05:25:57;;;;;;;10.77;6.10;;;20.80;98.00;;;;;;5052782;28;20529;-89
2023/08/23 05:28:24;;;;;;;9.27;5.70;;;20.80;98.00;;;;;;5051943;28;20450;-88
2023/08/23 05:30:51;;;;;;;11.27;6.03;;;20.80;98.00;;;;;;5052726;28;20838;-87
2023/08/23 05:33:18;;;;;;;10.17;5.70;;;20.60;98.00;;;;;;5052056;28;20457;-87
2023/08/23 05:35:46;;;;;;;10.97;6.50;;;20.60;98.00;;;;;;5052297;28;20446;-87
2023/08/23 05:38:13;;;;;;;13.40;6.30;;;20.80;98.00;;;;;;5051924;28;20454;-87
2023/08/23 05:40:41;;;;;;;10.40;6.13;;;21.00;98.00;;;;;;5052648;28;20967;-86
2023/08/23 05:43:08;;;;;;;11.10;6.53;;;21.20;98.00;;;;;;5052360;28;20853;-88
2023/08/23 05:45:35;;;;;;;10.33;6.20;;;21.30;98.00;;;;;;5052391;28;20978;-86
2023/08/23 05:48:02;;;;;;;11.83;6.87;;;21.40;98.00;;;;;;5051452;28;20511;-86
2023/08/23 05:50:29;;;;;;;9.47;5.73;;;21.40;98.00;;;;;;5051991;28;20817;-85
2023/08/23 05:52:57;;;;;;;10.07;6.17;;;21.30;98.00;;;;;;5052195;28;20457;-86
2023/08/23 05:55:24;;;;;;;13.90;6.80;;;21.40;98.00;;;;;;5052033;28;20477;-86
2023/08/23 05:57:52;;;;;;;10.30;6.10;;;21.50;98.00;;;;;;5051446;28;20507;-86
2023/08/23 06:00:20;;;;;;;11.97;6.83;;;21.40;98.00;;;;;;5051589;28;20481;-86
2023/08/23 06:02:47;;;;;;;12.33;6.23;;;21.40;98.00;;;;;;5051966;28;20507;-86
2023/08/23 06:05:14;;;;;;;10.80;6.20;;;21.30;98.00;;;;;;5051986;28;20902;-86
2023/08/23 06:07:42;;;;;;;9.67;5.70;;;21.30;98.00;;;;;;5051010;28;20457;-85
2023/08/23 06:10:10;;;;;;;10.80;6.43;;;21.30;98.00;;;;;;5051473;28;20520;-86
2023/08/23 06:12:38;;;;;;;11.47;6.03;;;21.50;98.00;;;;;;5051570;28;20458;-86
2023/08/23 06:15:07;;;;;;;11.67;6.63;;;21.70;98.00;;;;;;5051519;28;20464;-85
2023/08/23 06:17:35;;;;;;;10.53;5.67;;;21.80;98.00;;;;;;5050867;28;20461;-85
2023/08/23 06:20:04;;;;;;;9.30;5.40;;;22.00;98.00;;;;;;5051317;28;20850;-85
2023/08/23 06:22:31;;;;;;;8.10;5.63;;;22.40;98.00;;;;;;5051478;28;20476;-84
2023/08/23 06:24:58;;;;;;;8.13;5.07;;;22.80;98.00;;;;;;5051130;28;20576;-85
2023/08/23 06:27:25;;;;;;;8.80;5.63;;;23.10;98.00;;;;;;5050624;28;20462;-85
2023/08/23 06:29:52;;;;;;;8.47;5.53;;;23.40;98.00;;;;;;5051160;28;21056;-84
2023/08/23 06:32:20;;;;;;;12.33;5.60;;;23.60;98.00;;;;;;5051110;28;20461;-85
2023/08/23 06:34:47;;;;;;;12.27;6.60;;;23.80;98.00;;;;;;5051201;28;20496;-85
2023/08/23 06:37:14;;;;;;;11.13;6.20;;;24.00;98.00;;;;;;5050300;28;20979;-84
2023/08/23 06:39:41;;;;;;;9.87;6.27;;;24.10;98.00;;;;;;5050850;28;20469;-85
2023/08/23 06:42:08;;;;;;;9.73;6.37;;;24.20;98.00;;;;;;5050968;28;20469;-85
2023/08/23 06:44:35;;;;;;;12.10;6.97;;;24.20;98.00;;;;;;5050835;28;20485;-85
2023/08/23 06:47:02;;;;;;;12.97;5.93;;;24.30;98.00;;;;;;5050441;28;20453;-85
2023/08/23 06:49:31;;;;;;;12.60;6.97;;;24.30;98.00;;;;;;5050813;28;20996;-85
2023/08/23 06:51:58;;;;;;;9.47;6.17;;;24.40;98.00;;;;;;5050995;28;20461;-85
2023/08/23 06:54:25;;;;;;;12.07;6.47;;;24.50;98.00;;;;;;5051251;28;20943;-85
2023/08/23 06:56:52;;;;;;;11.10;6.17;;;24.70;98.00;;;;;;5050795;28;20469;-86
2023/08/23 06:59:19;;;;;;;13.30;7.57;;;24.90;98.00;;;;;;5050846;28;20486;-85
2023/08/23 07:04:22;;;;;;;10.90;6.40;;;24.90;98.00;;;;;;5078750;22;20477;-67
2023/08/23 07:06:57;;;;;;;10.73;6.70;;;24.90;98.00;;;;;;5049633;28;20485;-67
2023/08/23 07:09:24;;;;;;;11.33;6.83;;;24.90;98.00;;;;;;5050840;28;20453;-67
2023/08/23 07:11:51;;;;;;;11.10;6.70;;;25.10;98.00;;;;;;5050820;28;20796;-67
2023/08/23 07:14:18;;;;;;;10.40;6.43;;;25.10;98.00;;;;;;5051002;28;20449;-68
2023/08/23 07:16:45;;;;;;;10.70;6.50;;;25.20;98.00;;;;;;5050658;28;20825;-68
2023/08/23 07:19:12;;;;;;;11.73;6.30;;;25.30;98.00;;;;;;5050683;28;20480;-67
2023/08/23 07:21:39;;;;;;;11.83;6.70;;;25.40;98.00;;;;;;5050247;28;20446;-69
2023/08/23 07:24:08;;;;;;;9.90;6.43;;;25.50;98.00;;;;;;5050635;28;20477;-68
2023/08/23 07:26:35;;;;;;;11.10;6.90;;;25.50;98.00;;;;;;5050474;28;20444;-70
2023/08/23 07:29:05;;;;;;;13.17;8.00;;;25.30;98.00;;;;;;5050946;28;20805;-68
2023/08/23 07:31:32;;;;;;;18.43;8.20;;;25.10;98.00;;;;;;5051551;28;20457;-67
2023/08/23 07:33:59;;;;;;;11.60;7.43;;;24.80;98.00;;;;;;5252247;22;20433;-69
2023/08/23 07:36:26;;;;;;;12.13;7.00;;;24.80;98.00;;;;;;5049985;28;20470;-68
2023/08/23 07:38:53;;;;;;;11.63;7.17;;;24.90;98.00;;;;;;5050776;28;20453;-68
2023/08/23 07:41:22;;;;;;;11.00;6.87;;;25.00;98.00;;;;;;5050641;28;20515;-68
2023/08/23 07:43:49;;;;;;;12.20;7.07;;;25.10;98.00;;;;;;5051562;28;20936;-68
2023/08/23 07:46:16;;;;;;;10.03;6.53;;;25.10;98.00;;;;;;5051805;28;20531;-68
2023/08/23 07:48:43;;;;;;;16.83;7.37;;;25.30;98.00;;;;;;5051518;28;20446;-69
2023/08/23 07:51:11;;;;;;;12.77;7.27;;;25.40;98.00;;;;;;5051304;28;20446;-69
2023/08/23 07:53:41;;;;;;;11.10;6.77;;;25.50;98.00;;;;;;5051009;28;20458;-68
2023/08/23 07:56:10;;;;;;;9.17;6.13;;;25.60;98.00;;;;;;5051244;28;20450;-68
2023/08/23 07:58:40;;;;;;;12.07;7.20;;;25.80;98.00;;;;;;5053627;28;20846;-69
2023/08/23 08:01:07;;;;;;;11.53;7.23;;;25.80;98.00;;;;;;5054814;28;20450;-69
2023/08/23 08:03:34;;;;;;;13.30;7.13;;;26.00;98.00;;;;;;5054734;28;20452;-68
2023/08/23 08:06:01;;;;;;;11.90;7.60;;;26.20;98.00;;;;;;5054723;28;21010;-69
2023/08/23 08:08:28;;;;;;;12.47;7.50;;;26.20;98.00;;;;;;5054591;28;20469;-69
2023/08/23 08:10:55;;;;;;;10.87;7.40;;;26.20;98.00;;;;;;5054539;28;20449;-69
2023/08/23 08:13:23;;;;;;;11.80;7.33;;;26.10;98.00;;;;;;5054447;28;20476;-69
2023/08/23 08:15:52;;;;;;;14.00;8.27;;;26.10;98.00;;;;;;5054582;28;20967;-69
2023/08/23 08:18:20;;;;;;;13.37;7.80;;;26.20;98.00;;;;;;5054434;28;20445;-69
2023/08/23 08:20:48;;;;;;;11.97;7.57;;;26.30;98.00;;;;;;5054664;28;20511;-68
2023/08/23 08:23:15;;;;;;;12.10;7.20;;;26.40;98.00;;;;;;5054413;28;20465;-69
2023/08/23 08:25:42;;;;;;;12.57;7.63;;;26.40;98.00;;;;;;5053981;28;20481;-69
2023/08/23 08:28:10;;;;;;;12.17;7.20;;;26.50;98.00;;;;;;5054387;28;20528;-69
2023/08/23 08:30:37;;;;;;;11.90;7.30;;;26.40;98.00;;;;;;5054000;28;20446;-69
2023/08/23 08:33:06;;;;;;;12.77;7.40;;;26.40;98.00;;;;;;5052833;28;20461;-69
2023/08/23 08:35:33;;;;;;;11.60;7.40;;;26.60;98.00;;;;;;5054215;28;20501;-66
2023/08/23 08:38:00;;;;;;;13.13;7.17;;;26.70;98.00;;;;;;5054420;28;20467;-66
2023/08/23 08:40:28;;;;;;;13.23;7.50;;;27.00;98.00;;;;;;5054514;28;20503;-67
2023/08/23 08:42:55;;;;;;;11.40;6.97;;;27.10;98.00;;;;;;5054150;28;20450;-67
2023/08/23 08:45:23;;;;;;;12.20;7.03;;;27.20;98.00;;;;;;5054346;28;20493;-67
2023/08/23 08:47:51;;;;;;;11.93;7.33;;;27.20;98.00;;;;;;5053745;28;20469;-64
2023/08/23 08:50:21;;;;;;;13.10;7.27;;;27.10;98.00;;;;;;5052846;28;20457;-67
2023/08/23 08:52:53;;;;;;;12.50;7.20;;;26.80;98.00;;;;;;5052517;28;20457;-69
2023/08/23 08:55:22;;;;;;;11.70;7.60;;;26.90;98.00;;;;;;5054061;28;20449;-69
2023/08/23 08:57:52;;;;;;;13.20;8.40;;;27.00;98.00;;;;;;5053466;28;20508;-69
2023/08/23 09:00:22;;;;;;;11.70;7.70;;;27.10;98.00;;;;;;5053679;28;20453;-69
2023/08/23 09:02:52;;;;;;;18.50;7.80;;;27.20;98.00;;;;;;5054043;28;21021;-69
2023/08/23 09:05:21;;;;;;;13.73;7.77;;;27.50;98.00;;;;;;5053718;28;20573;-69
2023/08/23 09:07:48;;;;;;;11.63;7.07;;;27.60;98.00;;;;;;5053595;28;20461;-69
2023/08/23 09:10:16;;;;;;;13.77;7.40;;;27.70;98.00;;;;;;5052524;28;20924;-69
2023/08/23 09:12:43;;;;;;;12.57;7.53;;;27.70;98.00;;;;;;5052436;28;20450;-65
2023/08/23 09:15:10;;;;;;;13.47;7.50;;;27.90;98.00;;;;;;5053526;28;20465;-66
2023/08/23 09:20:07;;;;;;;13.67;7.37;;;28.10;98.00;;;;;;5042554;28;20482;-66
2023/08/23 09:22:36;;;;;;;11.70;7.20;;;28.20;98.00;;;;;;5053150;28;20454;-65
2023/08/23 09:25:08;;;;;;;12.77;7.50;;;28.30;98.00;;;;;;5053229;28;21022;-66
2023/08/23 09:30:04;;;;;;;9.50;6.77;;;27.90;98.00;;;;;;4992124;28;20500;-65
2023/08/23 09:32:31;;;;;;;13.73;7.70;;;27.90;98.00;;;;;;4992928;28;20453;-65
2023/08/23 09:35:11;;;;;;;11.93;7.33;;;28.00;98.00;;;;;;4993294;28;20527;-69
2023/08/23 09:37:42;;;;;;;12.70;7.70;;;28.10;98.00;;;;;;4993228;28;20475;-68
2023/08/23 09:40:17;;;;;;;11.83;6.83;;;28.30;98.00;;;;;;4993355;28;20559;-65
2023/08/23 09:42:45;;;;;;;11.90;7.17;;;28.60;98.00;;;;;;4992901;28;20448;-66
2023/08/23 09:45:16;;;;;;;14.80;7.43;;;28.70;98.00;;;;;;4993057;28;20483;-65
2023/08/23 09:47:49;;;;;;;13.60;7.60;;;28.90;98.00;;;;;;4992773;28;20543;-66
2023/08/23 09:50:17;;;;;;;11.67;7.20;;;29.00;98.00;;;;;;4993102;28;20551;-66
2023/08/23 09:52:48;;;;;;;10.93;6.83;;;29.10;98.00;;;;;;4992892;28;20461;-64
2023/08/23 09:55:16;;;;;;;12.00;7.60;;;29.00;98.00;;;;;;4992828;28;20456;-67
2023/08/23 09:57:44;;;;;;;12.90;7.50;;;29.20;98.00;;;;;;4992851;28;20637;-65
2023/08/23 10:00:12;;;;;;;15.73;8.13;;;29.40;98.00;;;;;;4992386;28;20461;-66
2023/08/23 10:02:41;;;;;;;10.67;6.67;;;29.40;98.00;;;;;;4992666;28;20456;-65
2023/08/23 10:05:11;;;;;;;10.37;7.17;;;29.50;98.00;;;;;;4992485;28;20492;-66
2023/08/23 10:07:40;;;;;;;11.00;7.20;;;29.80;98.00;;;;;;4992527;28;20452;-64
2023/08/23 10:10:10;;;;;;;10.40;6.80;;;30.00;98.00;;;;;;4992445;28;20539;-66
2023/08/23 10:12:41;;;;;;;11.93;6.87;;;30.10;98.00;;;;;;4992451;28;20461;-65
2023/08/23 10:15:12;;;;;;;11.90;7.70;;;30.20;98.00;;;;;;4992345;28;20519;-66
2023/08/23 10:17:40;;;;;;;13.80;7.57;;;30.20;98.00;;;;;;4974905;28;20559;-65
2023/08/23 10:20:10;;;;;;;12.77;7.63;;;30.30;98.00;;;;;;4991938;28;20460;-65
2023/08/23 10:22:37;;;;;;;11.43;7.00;;;30.30;98.00;;;;;;4991737;28;20562;-65
2023/08/23 10:25:18;;;;;;;10.10;7.33;;;30.40;98.00;;;;;;4991074;28;20480;-66
2023/08/23 10:27:47;;;;;;;9.20;6.63;;;30.50;98.00;;;;;;4990779;28;20978;-65
2023/08/23 10:30:22;;;;;;;11.60;7.33;;;30.60;98.00;;;;;;4992000;28;20563;-65
2023/08/23 10:32:49;;;;;;;10.97;7.10;;;30.70;98.00;;;;;;4992331;28;20456;-65
2023/08/23 10:35:29;;;;;;;11.70;6.80;;;30.80;98.00;;;;;;4992264;28;20457;-66
2023/08/23 10:37:58;;;;;;;11.00;7.40;;;30.90;98.00;;;;;;4975022;28;20456;-65
2023/08/23 10:40:30;;;;;;;12.30;6.97;;;30.90;98.00;;;;;;4992047;28;20456;-65
2023/08/23 10:42:57;;;;;;;10.20;6.50;;;30.80;98.00;;;;;;4992129;28;20460;-65
2023/08/23 10:45:25;;;;;;;9.43;6.53;;;30.70;98.00;;;;;;4991586;28;20488;-65
2023/08/23 10:47:53;;;;;;;11.53;7.00;;;31.00;98.00;;;;;;4991914;28;20464;-65
2023/08/23 10:50:20;;;;;;;12.47;7.20;;;31.20;98.00;;;;;;4991928;28;20479;-66
2023/08/23 10:52:51;;;;;;;11.80;7.07;;;31.60;98.00;;;;;;4991804;28;20663;-65
2023/08/23 10:55:18;;;;;;;11.50;6.80;;;32.00;97.80;;;;;;4991782;28;20448;-65
2023/08/23 10:57:47;;;;;;;12.43;6.70;;;32.10;97.20;;;;;;4991552;28;20457;-65
2023/08/23 11:00:15;;;;;;;9.17;6.43;;;32.00;97.80;;;;;;4991675;28;20965;-65
2023/08/23 11:02:42;;;;;;;12.77;6.87;;;31.90;96.30;;;;;;4991744;28;20448;-64
2023/08/23 11:05:11;;;;;;;10.50;6.57;;;31.80;97.40;;;;;;4991630;28;20457;-65
2023/08/23 11:07:38;;;;;;;9.73;6.70;;;31.60;97.70;;;;;;4991595;28;20950;-66
2023/08/23 11:10:09;;;;;;;9.40;6.40;;;31.40;97.70;;;;;;4991442;28;20826;-64
2023/08/23 11:12:38;;;;;;;12.30;6.63;;;31.30;98.00;;;;;;4991624;28;20451;-65
2023/08/23 11:15:08;;;;;;;10.67;6.37;;;31.10;98.00;;;;;;4991687;28;20819;-65
2023/08/23 11:17:35;;;;;;;8.87;5.67;;;31.40;97.60;;;;;;4991639;28;20460;-65
2023/08/23 11:20:04;;;;;;;9.97;6.40;;;31.70;95.30;;;;;;4991560;28;20455;-66
2023/08/23 11:22:31;;;;;;;10.63;6.17;;;31.90;95.00;;;;;;4991710;28;20464;-66
2023/08/23 11:24:59;;;;;;;8.10;5.60;;;32.20;95.10;;;;;;4991441;28;20471;-66
2023/08/23 11:27:26;;;;;;;9.53;5.50;;;32.50;94.80;;;;;;4991603;28;20506;-65
2023/08/23 11:29:53;;;;;;;8.83;6.10;;;32.70;93.00;;;;;;4991675;28;21020;-64
2023/08/23 11:32:24;;;;;;;10.07;6.10;;;32.60;93.00;;;;;;4992592;28;20503;-63
2023/08/23 11:34:51;;;;;;;8.20;5.73;;;32.50;93.10;;;;;;4995444;28;20456;-64
2023/08/23 11:37:18;;;;;;;10.63;6.00;;;32.30;93.70;;;;;;4995267;28;20472;-63
2023/08/23 11:39:55;;;;;;;12.07;5.90;;;32.30;95.80;;;;;;4995294;28;20460;-64
2023/08/23 11:42:23;;;;;;;8.77;5.80;;;32.50;92.40;;;;;;4995224;28;20930;-64
2023/08/23 11:44:50;;;;;;;8.90;6.13;;;32.60;91.50;;;;;;4995100;28;20460;-66
2023/08/23 11:47:17;;;;;;;8.93;5.97;;;32.60;91.20;;;;;;4994979;28;21085;-64
2023/08/23 11:49:48;;;;;;;12.03;5.40;;;32.80;91.10;;;;;;4977805;28;20456;-66
2023/08/23 11:52:18;;;;;;;7.07;5.40;;;33.30;89.80;;;;;;4994940;28;20456;-67
2023/08/23 11:54:45;;;;;;;9.33;5.53;;;33.60;89.60;;;;;;4977916;28;20459;-66
2023/08/23 11:57:15;;;;;;;8.27;5.40;;;33.90;89.70;;;;;;4994742;28;20824;-66
2023/08/23 11:59:42;;;;;;;9.23;5.73;;;34.10;88.40;;;;;;4995194;28;20456;-66
2023/08/23 12:02:10;;;;;;;7.13;4.90;;;34.40;87.80;;;;;;4994786;28;20460;-66
2023/08/23 12:04:42;;;;;;;6.40;4.67;;;34.60;85.90;;;;;;4994947;28;20467;-65
2023/08/23 12:07:11;;;;;;;8.60;5.53;;;34.70;84.90;;;;;;4994338;28;20907;-65
2023/08/23 12:09:39;;;;;;;8.53;5.27;;;34.40;87.40;;;;;;4995392;28;20476;-65
2023/08/23 12:12:07;;;;;;;8.40;5.50;;;34.50;87.30;;;;;;4978110;28;20455;-66
2023/08/23 12:14:37;;;;;;;9.37;5.83;;;34.60;88.10;;;;;;4977771;28;20448;-64
2023/08/23 12:17:04;;;;;;;8.57;6.17;;;34.70;86.60;;;;;;4994704;28;20514;-66
2023/08/23 12:19:36;;;;;;;9.37;6.10;;;34.70;89.10;;;;;;4995200;28;20452;-64
2023/08/23 12:22:06;;;;;;;9.27;6.07;;;34.70;88.00;;;;;;4994920;28;20452;-64
2023/08/23 12:24:34;;;;;;;9.77;6.57;;;34.90;86.70;;;;;;4995328;28;20457;-63
2023/08/23 12:27:01;;;;;;;9.90;6.30;;;35.00;86.60;;;;;;4994902;28;20492;-63
2023/08/23 12:29:28;;;;;;;8.77;5.83;;;35.00;87.00;;;;;;4994785;28;20464;-65
2023/08/23 12:31:56;;;;;;;7.87;6.07;;;35.20;86.90;;;;;;4994768;28;20561;-62
2023/08/23 12:34:23;;;;;;;10.10;6.50;;;35.30;87.70;;;;;;4994747;28;20464;-64
2023/08/23 12:36:50;;;;;;;10.27;6.57;;;35.40;86.00;;;;;;4994583;28;20452;-65
2023/08/23 12:39:17;;;;;;;12.20;6.60;;;35.50;87.70;;;;;;4994643;28;20459;-65
2023/08/23 12:41:45;;;;;;;8.70;6.40;;;35.60;86.90;;;;;;4994586;28;20547;-65
2023/08/23 12:44:15;;;;;;;8.30;6.20;;;35.50;86.90;;;;;;4994212;28;20950;-65
2023/08/23 12:46:42;;;;;;;8.00;6.17;;;35.60;85.80;;;;;;4976976;28;20522;-65
2023/08/23 12:49:12;;;;;;;8.40;6.03;;;35.70;85.40;;;;;;4993661;28;20467;-66
2023/08/23 12:51:39;;;;;;;8.80;6.33;;;35.80;86.40;;;;;;4994412;28;20492;-64